KLWT/LWT METAR and TAF weather

Enter ICAO airport designator
Station Type Date Time Source
KLWT METAR 2018/12/17 16:54 UTC NOAA

KLWT 171654Z AUTO 23014KT 10SM CLR 08/M06 A2989 RMK AO2 SLP124 T00831061


Station Type Date Time Source
KLWT Decoded METAR 2018/12/17 16:54 UTC NOAA

LEWISTOWN MUNICIPAL AIRPORT , MT, United States (KLWT) 47-03N 109-27W
Dec 17, 2018 - 11:54 AM EST / 2018.12.17 1654 UTC
Wind: from the SW (230 degrees) at 16 MPH (14 KT):0
Visibility: 10 mile(s):0
Sky conditions: clear
Temperature: 46.9 F (8.3 C)
Dew Point: 21.0 F (-6.1 C)
Relative Humidity: 35%
Pressure (altimeter): 29.89 in. Hg (1012 hPa)
ob: KLWT 171654Z AUTO 23014KT 10SM CLR 08/M06 A2989 RMK AO2 SLP124 T00831061
cycle: 17

Station Type Date Time Source
KLWT TAF 2018/12/17 18:22 UTC NOAA

TAF KLWT 171720Z 1718/1818 24012KT P6SM SCT090 BKN250
FM172100 27008KT P6SM SCT060 BKN090
FM180200 VRB06KT P6SM FEW050 SCT120
FM181500 21011G21KT P6SM FEW110 SCT250


Example: see airport list